Observations for Trim Patrick St
| Time | AQI | Temp °C | Hum % | Pres Pa | CO μg/m³ | H₂S μg/m³ | NO μg/m³ | NO₂ μg/m³ | O₃ μg/m³ | SO₂ μg/m³ | PM1 μg/m³ | PM2.5 μg/m³ | PM10 μg/m³ |
|---|---|---|---|---|---|---|---|---|---|---|---|---|---|
| Thursday 27 August 2026 | |||||||||||||
| 23:52 | 3 | 17.3 | 86 | 38,460 | 0.1 | 0.13 | 1.2 | 11.52 | 40.99 | 0 | 11.43 | 17.85 | 19.63 |
| 23:51 | 3 | 17.4 | 86 | 38,460 | 0.09 | 0.34 | 1.27 | 10.94 | 40.85 | 0 | 11.43 | 17.16 | 18.88 |
| 23:50 | 3 | 17.4 | 86 | 38,460 | 0.09 | 0.31 | 1.1 | 11.12 | 39.75 | 0 | 11.43 | 17.16 | 18.88 |
| 23:49 | 3 | 17.4 | 86 | 38,460 | 0.1 | 0.18 | 1.42 | 11.44 | 42.09 | 0 | 11.43 | 17.85 | 19.63 |
| 23:48 | 3 | 17.4 | 86 | 38,460 | 0.08 | 0.1 | 1.21 | 10.94 | 39.96 | 0 | 11.43 | 17.16 | 18.88 |
| 23:47 | 3 | 17.4 | 86 | 38,460 | 0.09 | 0.47 | 1.13 | 11.87 | 39.36 | 0 | 11.43 | 18.53 | 20.39 |
| 23:46 | 3 | 17.5 | 86 | 38,460 | 0.09 | 0.25 | 1.09 | 11.47 | 40.19 | 0 | 12.29 | 19.22 | 21.14 |
| 23:45 | 3 | 17.4 | 86 | 38,460 | 0.09 | 0 | 1.24 | 11.54 | 38.98 | 0 | 11.43 | 17.16 | 18.88 |
| 23:44 | 3 | 17.5 | 86 | 38,460 | 0.08 | 0.86 | 1.06 | 11.68 | 41.11 | 0 | 14 | 19.22 | 21.14 |
| 23:43 | 3 | 17.5 | 86 | 38,460 | 0.08 | 0.54 | 1.17 | 11.79 | 38.72 | 0 | 14 | 21.97 | 24.16 |
| 23:42 | 3 | 17.5 | 86 | 38,460 | 0.09 | 0.49 | 1.19 | 11.89 | 37.65 | 0 | 14.86 | 19.91 | 21.9 |
| 23:41 | 3 | 17.5 | 86 | 38,460 | 0.09 | 0.54 | 1.19 | 12 | 42.39 | 0 | 12.29 | 17.85 | 19.63 |
| 23:40 | 3 | 17.5 | 86 | 38,460 | 0.09 | 0.54 | 1.2 | 11.46 | 39.46 | 0 | 13.14 | 20.59 | 22.65 |
| 23:39 | 3 | 17.5 | 86 | 38,460 | 0.09 | 0 | 1.16 | 11.67 | 38.69 | 0 | 15.71 | 22.65 | 24.92 |
| 23:38 | 3 | 17.5 | 86 | 38,460 | 0.14 | 0.41 | 1.19 | 11.57 | 39.24 | 0.51 | 14 | 19.22 | 21.14 |
| 23:37 | 3 | 17.5 | 86 | 38,460 | 0.1 | 0 | 1.09 | 11.58 | 40.26 | 0 | 13.14 | 20.58 | 22.64 |
| 23:36 | 3 | 17.6 | 86 | 38,460 | 0.09 | 0 | 1.09 | 11.39 | 39.62 | 0 | 13.14 | 21.96 | 24.15 |
| 23:34 | 3 | 17.6 | 86 | 38,460 | 0.08 | 0.44 | 1.02 | 11.92 | 39.04 | 0 | 14 | 20.58 | 22.64 |
| 23:32 | 3 | 17.6 | 86 | 38,460 | 0.09 | 0.41 | 1.37 | 12.32 | 41.04 | 0 | 13.14 | 18.52 | 20.38 |
| 23:31 | 3 | 17.6 | 86 | 38,460 | 0.1 | 0.25 | 1.32 | 11.5 | 39.75 | 0 | 14.86 | 21.27 | 23.4 |